createdAt,value
2022-10-04T00:04:42.602Z,98834.66
2022-10-04T00:09:55.477Z,98826.53
2022-10-04T00:15:02.047Z,98835.63
2022-10-04T00:20:42.345Z,98839.63
2022-10-04T00:25:44.171Z,98834.03
2022-10-04T00:31:06.303Z,98840.22
2022-10-04T00:36:37.764Z,98831.59
2022-10-04T00:41:48.380Z,98836.16
2022-10-04T00:46:51.823Z,98835.38
2022-10-04T00:51:58.190Z,98826.91
2022-10-04T00:57:10.547Z,98828.88
2022-10-04T01:02:22.333Z,98827.84
2022-10-04T01:07:33.482Z,98832.59
2022-10-04T01:12:41.450Z,98827.84
2022-10-04T01:18:11.021Z,98814.94
2022-10-04T01:23:44.398Z,98816.91
2022-10-04T01:28:46.589Z,98817.25
2022-10-04T01:33:48.647Z,98821.38
2022-10-04T01:38:51.441Z,98815.97
2022-10-04T01:43:58.627Z,98814.34
2022-10-04T01:49:05.196Z,98816.53
2022-10-04T01:54:13.901Z,98821.94
2022-10-04T01:59:29.223Z,98812.03
2022-10-04T02:04:35.842Z,98811.63
2022-10-04T02:09:42.830Z,98809.19
2022-10-04T02:14:53.349Z,98803.69
2022-10-04T02:19:56.803Z,98796.63
2022-10-04T02:24:59.093Z,98804.81
2022-10-04T02:30:06.320Z,98798.88
2022-10-04T02:35:08.343Z,98795.75
2022-10-04T02:40:16.192Z,98808.16
2022-10-04T02:45:40.463Z,98792.44
2022-10-04T02:50:55.760Z,98793.25
2022-10-04T02:55:58.227Z,98793.19
2022-10-04T03:01:00.871Z,98791.75
2022-10-04T03:06:12.348Z,98784.69
2022-10-04T03:11:16.348Z,98783.97
2022-10-04T03:16:19.485Z,98783.97
2022-10-04T03:21:23.169Z,98777.28
2022-10-04T03:26:31.185Z,98776.97
2022-10-04T03:31:35.183Z,98788.72
2022-10-04T03:36:37.126Z,98775.78
2022-10-04T03:41:41.259Z,98775.44
2022-10-04T03:46:44.786Z,98778.50
2022-10-04T03:51:50.621Z,98782.75
2022-10-04T03:56:54.829Z,98782.03
2022-10-04T04:02:33.204Z,98775.00
2022-10-04T04:07:46.203Z,98789.00
2022-10-04T04:13:02.371Z,98774.66
2022-10-04T04:18:07.949Z,98775.78
2022-10-04T04:23:15.545Z,98785.25
2022-10-04T04:28:33.036Z,98788.81
2022-10-04T04:33:45.124Z,98785.53
2022-10-04T04:39:05.750Z,98802.66
2022-10-04T04:44:18.281Z,98785.47
2022-10-04T04:49:20.345Z,98805.59
2022-10-04T04:54:25.388Z,98789.75
2022-10-04T04:59:28.094Z,98798.34
2022-10-04T05:04:31.551Z,98802.09
2022-10-04T05:09:35.652Z,98800.44
2022-10-04T05:14:39.837Z,98806.94
2022-10-04T05:19:41.913Z,98809.53
2022-10-04T05:24:47.680Z,98809.97
2022-10-04T05:30:19.378Z,98809.97
2022-10-04T05:35:22.893Z,98821.16
2022-10-04T05:40:48.222Z,98817.41
2022-10-04T05:46:19.172Z,98819.72
2022-10-04T05:51:25.780Z,98834.06
2022-10-04T05:56:30.460Z,98831.03
2022-10-04T06:02:04.710Z,98845.53
2022-10-04T06:07:12.673Z,98849.06
2022-10-04T06:12:31.761Z,98845.28
2022-10-04T06:17:51.949Z,98846.06
2022-10-04T06:23:00.399Z,98849.28
2022-10-04T06:28:19.006Z,98854.53
2022-10-04T06:33:35.099Z,98855.94
2022-10-04T06:38:47.180Z,98856.59
2022-10-04T06:44:07.920Z,98857.44
2022-10-04T06:49:14.037Z,98867.22
2022-10-04T06:54:25.069Z,98878.97
2022-10-04T06:59:48.748Z,98879.81
2022-10-04T07:05:14.284Z,98874.78
2022-10-04T07:10:35.197Z,98877.75
2022-10-04T07:16:04.539Z,98882.06
2022-10-04T07:21:15.785Z,98888.91
2022-10-04T07:26:30.909Z,98888.00
2022-10-04T07:31:37.795Z,98886.00
2022-10-04T07:36:56.731Z,98885.16
2022-10-04T07:42:10.187Z,98886.72
2022-10-04T07:47:25.846Z,98894.59
2022-10-04T07:52:34.238Z,98895.50
2022-10-04T07:57:36.089Z,98900.56
2022-10-04T08:03:26.363Z,98890.16
2022-10-04T08:09:01.212Z,98888.41
2022-10-04T08:14:25.786Z,98901.44
2022-10-04T08:19:57.058Z,98908.38
2022-10-04T08:25:01.653Z,98910.00
2022-10-04T08:30:06.318Z,98916.38
2022-10-04T08:35:16.458Z,98917.25
2022-10-04T08:40:53.762Z,98928.72
2022-10-04T08:46:24.476Z,98924.91
2022-10-04T08:51:26.501Z,98934.69
2022-10-04T08:56:49.981Z,98928.44
2022-10-04T09:02:07.098Z,98940.00
2022-10-04T09:07:35.170Z,98929.22
2022-10-04T09:13:06.295Z,98923.94
2022-10-04T09:18:22.624Z,98927.47
2022-10-04T09:23:56.628Z,98929.44
2022-10-04T09:29:23.426Z,98928.84
2022-10-04T09:34:59.534Z,98928.25
2022-10-04T09:40:20.291Z,98934.25
2022-10-04T09:45:48.028Z,98920.72
2022-10-04T09:51:22.302Z,98928.72
2022-10-04T09:56:33.013Z,98927.91
2022-10-04T10:01:46.626Z,98939.72
2022-10-04T10:06:54.154Z,98925.44
2022-10-04T10:12:45.684Z,98936.44
2022-10-04T10:18:15.209Z,98928.69
2022-10-04T10:23:35.145Z,98928.22
2022-10-04T10:28:58.886Z,98927.88
2022-10-04T10:34:22.606Z,98935.69
2022-10-04T10:40:06.081Z,98935.03
2022-10-04T10:45:45.844Z,98937.47
2022-10-04T10:51:00.977Z,98948.47
2022-10-04T10:56:30.172Z,98938.28
2022-10-04T11:01:35.317Z,98942.22
2022-10-04T11:07:08.034Z,98942.63
2022-10-04T11:12:33.673Z,98933.28
2022-10-04T11:17:44.505Z,98928.25
2022-10-04T11:23:05.018Z,98917.31
2022-10-04T11:28:26.593Z,98916.56
2022-10-04T11:33:40.339Z,98911.06
2022-10-04T11:39:08.289Z,98915.41
2022-10-04T11:44:34.315Z,98904.69
2022-10-04T11:49:42.136Z,98901.44
2022-10-04T11:55:21.250Z,98899.78
2022-10-04T12:00:32.013Z,98900.53
2022-10-04T12:05:51.790Z,98892.75
2022-10-04T12:11:18.755Z,98899.94
2022-10-04T12:16:46.722Z,98901.53
2022-10-04T12:22:09.059Z,98901.94
2022-10-04T12:27:31.026Z,98888.13
2022-10-04T12:32:35.721Z,98884.16
2022-10-04T12:38:14.673Z,98875.91
2022-10-04T12:43:30.937Z,98876.28
2022-10-04T12:49:02.003Z,98868.13
2022-10-04T12:54:39.927Z,98868.91
2022-10-04T13:00:16.987Z,98864.50
2022-10-04T13:05:27.832Z,98864.69
2022-10-04T13:11:03.941Z,98869.09
2022-10-04T13:22:11.139Z,98879.44
2022-10-04T13:27:20.938Z,98867.44
2022-10-04T13:32:33.184Z,98859.72
2022-10-04T13:37:53.788Z,98855.13
2022-10-04T13:43:34.220Z,98852.81
2022-10-04T13:48:51.755Z,98846.50
2022-10-04T13:54:43.045Z,98863.97
2022-10-04T13:59:52.549Z,98857.16
2022-10-04T14:05:00.301Z,98857.09
2022-10-04T14:10:17.521Z,98843.56
2022-10-04T14:15:48.791Z,98841.41
2022-10-04T14:20:59.969Z,98850.56
2022-10-04T14:26:23.366Z,98847.16
2022-10-04T14:32:13.010Z,98844.19
2022-10-04T14:37:36.577Z,98841.38
2022-10-04T14:42:47.656Z,98850.31
2022-10-04T14:48:26.757Z,98829.63
2022-10-04T14:53:37.281Z,98818.16
2022-10-04T14:58:50.394Z,98824.84
2022-10-04T15:04:27.260Z,98822.88
2022-10-04T15:10:12.652Z,98830.91
2022-10-04T15:15:26.306Z,98835.81
2022-10-04T15:20:57.663Z,98824.56
2022-10-04T15:26:25.948Z,98811.72
2022-10-04T15:32:07.411Z,98798.69
2022-10-04T15:37:44.254Z,98791.66
2022-10-04T15:43:36.861Z,98781.88
2022-10-04T15:48:50.399Z,98783.56
2022-10-04T15:54:05.894Z,98778.81
2022-10-04T15:59:33.595Z,98782.84
2022-10-04T16:04:43.473Z,98777.81
2022-10-04T16:10:12.642Z,98767.22
2022-10-04T16:15:19.534Z,98764.88
2022-10-04T16:21:15.581Z,98754.69
2022-10-04T16:26:17.318Z,98758.66
2022-10-04T16:31:38.398Z,98761.84
2022-10-04T16:36:46.784Z,98754.41
2022-10-04T16:42:06.449Z,98773.69
2022-10-04T16:47:27.501Z,98775.31
2022-10-04T16:52:52.676Z,98787.09
2022-10-04T16:58:28.815Z,98786.69
2022-10-04T17:03:36.521Z,98793.31
2022-10-04T17:09:22.841Z,98790.91
2022-10-04T17:14:48.219Z,98791.28
2022-10-04T17:20:17.967Z,98790.03
2022-10-04T17:25:48.701Z,98780.97
2022-10-04T17:30:58.490Z,98789.22
2022-10-04T17:36:14.181Z,98789.16
2022-10-04T17:41:59.601Z,98779.75
2022-10-04T17:47:26.893Z,98792.97
2022-10-04T17:52:58.813Z,98789.41
2022-10-04T17:58:11.418Z,98780.41
2022-10-04T18:03:19.294Z,98789.00
2022-10-04T18:08:39.441Z,98792.16
2022-10-04T18:13:51.244Z,98780.38
2022-10-04T18:18:53.399Z,98808.09
2022-10-04T18:24:02.270Z,98808.88
2022-10-04T18:29:09.243Z,98815.53
2022-10-04T18:34:10.996Z,98829.59
2022-10-04T18:39:13.027Z,98817.84
2022-10-04T18:44:17.402Z,98817.03
2022-10-04T18:49:27.359Z,98813.06
2022-10-04T18:54:37.174Z,98796.56
2022-10-04T19:00:00.589Z,98805.47
2022-10-04T19:05:11.904Z,98805.09
2022-10-04T19:10:39.929Z,98805.09
2022-10-04T19:15:44.631Z,98808.13
2022-10-04T19:21:09.624Z,98817.41
2022-10-04T19:26:32.917Z,98824.34
2022-10-04T19:31:54.739Z,98827.66
2022-10-04T19:37:09.162Z,98814.53
2022-10-04T19:42:32.082Z,98827.78
2022-10-04T19:47:42.486Z,98823.13
2022-10-04T19:52:47.280Z,98819.13
2022-10-04T19:58:05.420Z,98824.50
2022-10-04T20:03:14.064Z,98835.00
2022-10-04T20:08:51.237Z,98839.31
2022-10-04T20:14:16.959Z,98845.53
2022-10-04T20:19:40.674Z,98847.69
2022-10-04T20:24:42.506Z,98861.78
2022-10-04T20:29:53.423Z,98862.66
2022-10-04T20:34:57.456Z,98859.56
2022-10-04T20:39:59.566Z,98864.22
2022-10-04T20:45:05.991Z,98874.28
2022-10-04T20:50:12.064Z,98868.31
2022-10-04T20:55:27.533Z,98863.91
2022-10-04T21:00:34.276Z,98867.59
2022-10-04T21:05:37.349Z,98868.63
2022-10-04T21:11:08.906Z,98872.09
2022-10-04T21:16:10.904Z,98881.75
2022-10-04T21:21:14.760Z,98878.09
2022-10-04T21:26:24.574Z,98881.50
2022-10-04T21:31:26.629Z,98894.63
2022-10-04T21:36:28.634Z,98881.72
2022-10-04T21:41:30.481Z,98880.88
2022-10-04T21:46:32.451Z,98863.66
2022-10-04T21:51:37.316Z,98872.53
2022-10-04T21:56:39.173Z,98865.94
2022-10-04T22:01:41.064Z,98859.72
2022-10-04T22:06:43.478Z,98859.63
2022-10-04T22:11:45.567Z,98845.38
2022-10-04T22:16:47.784Z,98845.94
2022-10-04T22:21:49.918Z,98849.25
2022-10-04T22:26:51.783Z,98853.44
2022-10-04T22:31:53.669Z,98854.84
2022-10-04T22:36:55.819Z,98841.31
2022-10-04T22:42:00.820Z,98827.09
2022-10-04T22:47:04.390Z,98796.63
2022-10-04T22:52:18.813Z,98790.31
2022-10-04T22:57:21.016Z,98786.31
2022-10-04T23:02:28.321Z,98766.00
2022-10-04T23:07:32.787Z,98767.69
2022-10-04T23:12:37.097Z,98743.72
2022-10-04T23:17:39.818Z,98760.75
2022-10-04T23:22:46.412Z,98751.31
2022-10-04T23:27:48.810Z,98742.94
2022-10-04T23:32:53.062Z,98744.75
2022-10-04T23:37:55.226Z,98738.44
2022-10-04T23:42:58.027Z,98731.34
2022-10-04T23:48:01.435Z,98718.78
2022-10-04T23:53:09.202Z,98725.78
2022-10-04T23:58:20.900Z,98719.44
